Time;durP1;ratioP1;P1;durP2;ratioP2;P2;SDS_P1;SDS_P2;PMS_P1;PMS_P2;Temp;Humidity;BMP_temperature;BMP_pressure;BME280_temperature;BME280_humidity;BME280_pressure;Samples;Min_cycle;Max_cycle;Signal;HPM_P1;HPM_P2
2022/10/26 00:00:13;;;;;;;31.77;17.65;;;;;;;;;;10046673;28;20058;-68
2022/10/26 00:05:09;;;;;;;28.48;16.92;;;;;;;;;;10041472;28;20058;-67
2022/10/26 00:10:04;;;;;;;21.58;16.30;;;;;;;;;;10021235;28;20052;-68
2022/10/26 00:14:57;;;;;;;27.23;16.58;;;;;;;;;;10025770;28;20050;-68
2022/10/26 00:19:51;;;;;;;25.50;17.33;;;;;;;;;;10039355;28;20061;-68
2022/10/26 00:24:45;;;;;;;23.33;16.77;;;;;;;;;;10022825;28;20046;-68
2022/10/26 00:29:40;;;;;;;22.45;16.70;;;;;;;;;;10019647;28;20104;-68
2022/10/26 00:34:34;;;;;;;22.73;15.40;;;;;;;;;;10026540;28;20099;-68
2022/10/26 00:39:28;;;;;;;25.65;14.85;;;;;;;;;;10034957;28;20061;-68
2022/10/26 00:44:43;;;;;;;28.00;17.80;;;;;;;;;;10029743;28;20116;-68
2022/10/26 00:49:37;;;;;;;26.70;15.25;;;;;;;;;;10014545;28;20070;-68
2022/10/26 00:54:38;;;;;;;28.77;16.40;;;;;;;;;;10023595;28;20133;-68
2022/10/26 00:59:31;;;;;;;22.20;14.90;;;;;;;;;;10024525;28;20149;-68
2022/10/26 01:04:24;;;;;;;29.73;18.75;;;;;;;;;;10017054;28;20085;-68
2022/10/26 01:09:18;;;;;;;30.23;18.58;;;;;;;;;;10027496;28;20109;-67
2022/10/26 01:14:11;;;;;;;26.95;17.70;;;;;;;;;;10042256;28;20050;-68
2022/10/26 01:19:26;;;;;;;25.40;17.05;;;;;;;;;;10036415;28;20054;-67
2022/10/26 01:24:22;;;;;;;28.67;16.95;;;;;;;;;;10054834;28;20463;-68
2022/10/26 01:29:36;;;;;;;30.45;17.52;;;;;;;;;;10069153;28;20399;-68
2022/10/26 01:34:35;;;;;;;28.70;18.30;;;;;;;;;;10053891;28;20053;-68
2022/10/26 01:39:30;;;;;;;29.98;20.20;;;;;;;;;;10052546;28;20108;-68
2022/10/26 01:44:28;;;;;;;28.25;16.48;;;;;;;;;;10054604;28;20445;-68
2022/10/26 01:49:25;;;;;;;29.33;16.93;;;;;;;;;;10061229;28;20045;-67
2022/10/26 01:54:18;;;;;;;23.08;14.25;;;;;;;;;;10045911;28;20054;-67
2022/10/26 01:59:25;;;;;;;21.42;13.43;;;;;;;;;;10061485;28;20501;-67
2022/10/26 02:04:21;;;;;;;22.83;13.48;;;;;;;;;;10053856;28;20053;-68
2022/10/26 02:09:32;;;;;;;19.48;14.50;;;;;;;;;;10070434;28;20394;-68
2022/10/26 02:14:50;;;;;;;20.50;14.77;;;;;;;;;;10058478;28;20057;-68
2022/10/26 02:19:56;;;;;;;31.23;16.25;;;;;;;;;;10059337;28;20116;-68
2022/10/26 02:24:51;;;;;;;25.17;16.38;;;;;;;;;;10064257;28;20144;-68
2022/10/26 02:29:46;;;;;;;25.95;16.08;;;;;;;;;;10053587;28;20077;-67
2022/10/26 02:34:40;;;;;;;26.85;17.10;;;;;;;;;;10054441;28;20160;-68
2022/10/26 02:39:33;;;;;;;24.15;16.02;;;;;;;;;;10036000;28;20068;-67
2022/10/26 02:44:29;;;;;;;29.20;17.75;;;;;;;;;;10037173;28;20159;-68
2022/10/26 02:49:23;;;;;;;25.58;17.15;;;;;;;;;;10038774;28;20049;-70
2022/10/26 02:54:21;;;;;;;26.73;18.08;;;;;;;;;;10008245;28;20559;-67
2022/10/26 02:59:15;;;;;;;28.92;17.92;;;;;;;;;;10027782;28;20082;-67
2022/10/26 03:04:09;;;;;;;28.98;16.60;;;;;;;;;;10013792;28;20076;-67
2022/10/26 03:09:03;;;;;;;28.80;18.25;;;;;;;;;;10022090;28;20108;-68
2022/10/26 03:13:57;;;;;;;27.63;17.77;;;;;;;;;;10031228;28;20556;-69
2022/10/26 03:18:51;;;;;;;28.63;18.20;;;;;;;;;;10033254;28;20054;-67
2022/10/26 03:23:46;;;;;;;33.58;17.48;;;;;;;;;;10028632;28;20065;-67
2022/10/26 03:28:40;;;;;;;31.58;19.27;;;;;;;;;;10030635;28;20073;-68
2022/10/26 03:33:34;;;;;;;29.02;19.60;;;;;;;;;;10016009;28;20080;-68
2022/10/26 03:38:27;;;;;;;35.03;19.65;;;;;;;;;;10032123;28;20057;-68
2022/10/26 03:43:21;;;;;;;40.17;20.48;;;;;;;;;;10029373;28;20054;-68
2022/10/26 03:48:15;;;;;;;29.73;19.00;;;;;;;;;;10033783;28;20428;-68
2022/10/26 03:53:08;;;;;;;32.70;18.83;;;;;;;;;;10036835;28;20136;-68
2022/10/26 03:58:00;;;;;;;33.58;22.50;;;;;;;;;;10037067;28;20049;-68
2022/10/26 04:02:57;;;;;;;40.13;23.30;;;;;;;;;;10026352;28;20096;-68
2022/10/26 04:08:01;;;;;;;34.55;22.55;;;;;;;;;;10040802;28;20398;-68
2022/10/26 04:12:57;;;;;;;43.15;22.85;;;;;;;;;;10033364;28;20099;-67
2022/10/26 04:17:56;;;;;;;37.00;21.40;;;;;;;;;;10039963;28;20125;-67
2022/10/26 04:22:57;;;;;;;33.53;20.67;;;;;;;;;;10046171;28;20523;-67
2022/10/26 04:27:51;;;;;;;32.42;20.40;;;;;;;;;;10058747;28;20446;-67
2022/10/26 04:32:45;;;;;;;39.47;22.35;;;;;;;;;;10058696;28;20176;-69
2022/10/26 04:37:39;;;;;;;36.90;21.88;;;;;;;;;;10065787;28;20049;-68
2022/10/26 04:42:44;;;;;;;36.25;21.60;;;;;;;;;;10039524;28;20505;-67
2022/10/26 04:47:37;;;;;;;33.35;22.88;;;;;;;;;;10026804;28;20050;-68
2022/10/26 04:52:30;;;;;;;36.53;22.73;;;;;;;;;;10044974;28;20097;-67
2022/10/26 04:57:24;;;;;;;47.42;22.52;;;;;;;;;;10053990;28;20460;-67
2022/10/26 05:02:19;;;;;;;37.17;23.13;;;;;;;;;;10039416;28;20057;-67
2022/10/26 05:07:13;;;;;;;35.42;22.20;;;;;;;;;;10059879;28;20084;-68
2022/10/26 05:12:08;;;;;;;38.25;20.63;;;;;;;;;;10054607;28;20049;-68
2022/10/26 05:17:01;;;;;;;35.55;20.80;;;;;;;;;;10041826;28;20088;-68
2022/10/26 05:21:55;;;;;;;37.97;21.02;;;;;;;;;;10039482;28;20085;-68
2022/10/26 05:26:49;;;;;;;33.28;20.33;;;;;;;;;;10045222;28;20058;-68
2022/10/26 05:31:43;;;;;;;32.53;19.98;;;;;;;;;;10050737;28;20084;-68
2022/10/26 05:36:37;;;;;;;34.85;22.08;;;;;;;;;;10044149;28;20054;-67
2022/10/26 05:41:30;;;;;;;27.65;18.77;;;;;;;;;;10035217;28;20085;-68
2022/10/26 05:46:24;;;;;;;33.10;21.23;;;;;;;;;;10031796;28;20057;-69
2022/10/26 05:51:18;;;;;;;37.83;20.92;;;;;;;;;;10035997;28;20153;-70
2022/10/26 05:56:36;;;;;;;47.78;22.05;;;;;;;;;;10042061;28;20084;-69
2022/10/26 06:01:38;;;;;;;40.58;24.42;;;;;;;;;;10032965;28;20065;-69
2022/10/26 06:06:41;;;;;;;36.75;20.50;;;;;;;;;;10027100;28;20467;-70
2022/10/26 06:11:35;;;;;;;45.10;21.80;;;;;;;;;;10017262;28;20464;-67
2022/10/26 06:16:46;;;;;;;34.58;21.48;;;;;;;;;;10031564;28;20099;-67
2022/10/26 06:22:15;;;;;;;44.00;23.45;;;;;;;;;;10030585;28;20458;-67
2022/10/26 06:27:30;;;;;;;36.35;19.98;;;;;;;;;;10031463;28;20057;-67
2022/10/26 06:32:23;;;;;;;32.15;20.42;;;;;;;;;;10028641;28;20118;-67
2022/10/26 06:37:18;;;;;;;39.72;22.00;;;;;;;;;;10024813;28;20096;-67
2022/10/26 06:42:17;;;;;;;36.92;23.92;;;;;;;;;;10046536;28;20060;-67
2022/10/26 06:47:22;;;;;;;35.38;23.27;;;;;;;;;;10036406;28;20053;-67
2022/10/26 06:52:23;;;;;;;38.35;22.13;;;;;;;;;;10025845;28;20042;-66
2022/10/26 06:57:39;;;;;;;36.38;23.25;;;;;;;;;;10022461;28;20453;-70
2022/10/26 07:02:33;;;;;;;37.67;21.65;;;;;;;;;;10023826;28;20066;-70
2022/10/26 07:07:29;;;;;;;35.85;20.65;;;;;;;;;;10034939;28;20097;-70
2022/10/26 07:12:23;;;;;;;30.45;19.15;;;;;;;;;;10023852;28;20415;-70
2022/10/26 07:17:18;;;;;;;31.00;18.90;;;;;;;;;;10031003;28;20547;-70
2022/10/26 07:22:11;;;;;;;32.13;16.85;;;;;;;;;;10027527;28;20092;-70
2022/10/26 07:27:04;;;;;;;33.67;19.05;;;;;;;;;;10028738;28;20053;-70
2022/10/26 07:31:58;;;;;;;33.85;18.65;;;;;;;;;;10019981;28;20064;-71
2022/10/26 07:36:53;;;;;;;42.75;18.02;;;;;;;;;;10019368;28;20045;-70
2022/10/26 07:41:49;;;;;;;42.92;20.63;;;;;;;;;;10025152;28;20042;-69
2022/10/26 07:46:42;;;;;;;28.50;17.50;;;;;;;;;;10011154;28;20073;-66
2022/10/26 07:51:35;;;;;;;37.75;18.60;;;;;;;;;;10028049;28;20049;-67
2022/10/26 07:56:29;;;;;;;34.70;18.23;;;;;;;;;;10030511;28;20041;-67
2022/10/26 08:01:22;;;;;;;33.92;16.50;;;;;;;;;;10018531;28;20045;-66
2022/10/26 08:06:15;;;;;;;36.13;19.30;;;;;;;;;;10035775;28;20060;-67
2022/10/26 08:11:10;;;;;;;51.88;21.58;;;;;;;;;;10047523;28;20072;-69
2022/10/26 08:16:06;;;;;;;50.50;19.75;;;;;;;;;;10054938;28;20041;-68
2022/10/26 08:21:05;;;;;;;37.05;20.80;;;;;;;;;;10024446;28;20054;-67
2022/10/26 08:26:03;;;;;;;31.52;18.13;;;;;;;;;;10048086;28;20389;-67
2022/10/26 08:30:57;;;;;;;31.02;13.10;;;;;;;;;;10054442;28;20083;-67
2022/10/26 08:35:57;;;;;;;35.13;14.45;;;;;;;;;;10043846;28;20129;-67
2022/10/26 08:40:50;;;;;;;33.95;16.88;;;;;;;;;;10048247;28;20398;-67
2022/10/26 08:46:02;;;;;;;29.63;14.20;;;;;;;;;;10040596;28;20502;-67
2022/10/26 08:51:00;;;;;;;25.02;11.82;;;;;;;;;;10051282;28;20045;-66
2022/10/26 08:56:17;;;;;;;28.20;11.88;;;;;;;;;;10035331;28;20060;-67
2022/10/26 09:01:10;;;;;;;25.45;12.15;;;;;;;;;;10046363;28;20049;-67
2022/10/26 09:06:16;;;;;;;19.52;13.18;;;;;;;;;;10048599;28;20557;-67
2022/10/26 09:11:34;;;;;;;27.10;12.13;;;;;;;;;;10053127;28;20069;-68
2022/10/26 09:16:47;;;;;;;22.25;10.98;;;;;;;;;;10051751;28;20053;-68
2022/10/26 09:22:17;;;;;;;21.10;10.40;;;;;;;;;;10017631;28;20054;-67
2022/10/26 09:27:20;;;;;;;23.92;9.57;;;;;;;;;;10033258;28;20389;-67
2022/10/26 09:32:37;;;;;;;24.90;9.15;;;;;;;;;;10037447;28;20424;-68
2022/10/26 09:37:40;;;;;;;24.35;10.40;;;;;;;;;;10050205;28;20060;-67
2022/10/26 09:42:48;;;;;;;25.40;8.93;;;;;;;;;;10046805;28;20509;-68
2022/10/26 09:47:51;;;;;;;16.02;8.35;;;;;;;;;;10043960;28;20053;-68
2022/10/26 09:52:45;;;;;;;20.80;8.43;;;;;;;;;;10042645;28;20053;-67
2022/10/26 09:57:43;;;;;;;19.02;9.20;;;;;;;;;;10048959;28;20470;-67
2022/10/26 10:02:42;;;;;;;23.33;11.52;;;;;;;;;;10050204;28;20412;-66
2022/10/26 10:07:36;;;;;;;23.98;11.13;;;;;;;;;;10035957;28;20393;-68
2022/10/26 10:12:32;;;;;;;31.38;12.35;;;;;;;;;;10057021;28;20457;-68
2022/10/26 10:17:25;;;;;;;14.38;7.18;;;;;;;;;;10037483;28;20108;-67
2022/10/26 10:22:25;;;;;;;21.30;6.20;;;;;;;;;;10045898;28;20108;-68
2022/10/26 10:27:18;;;;;;;17.15;5.80;;;;;;;;;;10031958;28;20056;-67
2022/10/26 10:32:19;;;;;;;17.58;6.43;;;;;;;;;;10030050;28;20042;-67
2022/10/26 10:37:29;;;;;;;16.95;6.68;;;;;;;;;;10033268;28;20041;-68
2022/10/26 10:42:26;;;;;;;15.82;7.15;;;;;;;;;;10037242;28;20124;-68
2022/10/26 10:47:23;;;;;;;26.80;7.40;;;;;;;;;;10072230;28;20066;-69
2022/10/26 10:52:42;;;;;;;17.98;6.82;;;;;;;;;;10042845;28;20374;-68
2022/10/26 10:57:56;;;;;;;12.05;6.75;;;;;;;;;;10046865;28;20045;-68
2022/10/26 11:03:07;;;;;;;11.20;7.57;;;;;;;;;;10057166;28;20062;-68
2022/10/26 11:08:12;;;;;;;33.67;9.32;;;;;;;;;;10052664;28;20049;-68
2022/10/26 11:13:13;;;;;;;14.50;7.38;;;;;;;;;;10047925;28;20053;-68
2022/10/26 11:18:16;;;;;;;19.58;8.25;;;;;;;;;;10036657;28;20058;-68
2022/10/26 11:23:19;;;;;;;24.42;8.48;;;;;;;;;;10044526;28;20131;-68
2022/10/26 11:28:22;;;;;;;20.10;8.63;;;;;;;;;;10041566;28;20037;-68
2022/10/26 11:33:24;;;;;;;17.60;8.10;;;;;;;;;;10026837;28;20129;-68
2022/10/26 11:38:23;;;;;;;23.85;10.23;;;;;;;;;;10029974;28;20414;-68
2022/10/26 11:43:49;;;;;;;12.15;7.90;;;;;;;;;;10009900;28;20490;-68
2022/10/26 11:49:18;;;;;;;27.88;9.68;;;;;;;;;;10033942;28;20042;-68
2022/10/26 11:54:40;;;;;;;22.63;9.60;;;;;;;;;;10035778;28;20481;-68
2022/10/26 11:59:38;;;;;;;29.52;9.00;;;;;;;;;;10028148;28;20084;-68
2022/10/26 12:04:34;;;;;;;17.52;9.23;;;;;;;;;;10041220;28;20058;-68
2022/10/26 12:09:32;;;;;;;23.08;9.38;;;;;;;;;;10031638;28;20546;-68
2022/10/26 12:14:43;;;;;;;21.35;10.15;;;;;;;;;;10033297;28;20041;-68
2022/10/26 12:19:54;;;;;;;24.15;8.77;;;;;;;;;;10030365;28;20058;-68
2022/10/26 12:25:17;;;;;;;24.63;7.68;;;;;;;;;;10039625;28;20050;-68
2022/10/26 12:30:16;;;;;;;24.90;10.25;;;;;;;;;;10032746;28;20057;-67
2022/10/26 12:35:29;;;;;;;28.13;9.85;;;;;;;;;;10022731;28;20419;-66
2022/10/26 12:40:40;;;;;;;21.33;7.40;;;;;;;;;;10041685;28;20448;-66
2022/10/26 12:45:37;;;;;;;29.50;8.43;;;;;;;;;;10044139;28;20053;-66
2022/10/26 12:50:31;;;;;;;24.15;8.18;;;;;;;;;;10041647;28;20060;-65
2022/10/26 12:55:33;;;;;;;17.88;7.57;;;;;;;;;;10030090;28;20081;-66
2022/10/26 13:00:26;;;;;;;30.88;8.15;;;;;;;;;;10036132;28;20061;-65
2022/10/26 13:05:32;;;;;;;30.48;6.93;;;;;;;;;;10038750;28;20140;-66
2022/10/26 13:10:32;;;;;;;25.73;8.55;;;;;;;;;;10035656;28;20053;-67
2022/10/26 13:15:52;;;;;;;25.30;7.75;;;;;;;;;;10076844;28;20444;-65
2022/10/26 13:21:06;;;;;;;20.35;7.45;;;;;;;;;;10037614;28;20128;-66
2022/10/26 13:26:12;;;;;;;19.45;6.63;;;;;;;;;;10036680;28;20052;-67
2022/10/26 13:31:33;;;;;;;32.67;8.10;;;;;;;;;;10041226;28;20053;-67
2022/10/26 13:36:32;;;;;;;18.33;7.35;;;;;;;;;;10051367;28;20050;-68
2022/10/26 13:41:37;;;;;;;25.08;7.32;;;;;;;;;;10049269;28;20409;-67
2022/10/26 13:46:35;;;;;;;20.48;6.68;;;;;;;;;;10037983;28;20132;-68
2022/10/26 13:51:39;;;;;;;15.50;5.65;;;;;;;;;;10042152;28;20077;-67
2022/10/26 13:56:36;;;;;;;22.83;8.45;;;;;;;;;;10066736;28;20780;-68
2022/10/26 14:01:30;;;;;;;24.25;8.50;;;;;;;;;;10066054;28;20042;-67
2022/10/26 14:07:15;;;;;;;19.98;7.75;;;;;;;;;;10033079;28;20555;-67
2022/10/26 14:12:48;;;;;;;21.58;7.35;;;;;;;;;;10054428;28;20133;-66
2022/10/26 14:17:42;;;;;;;20.75;7.75;;;;;;;;;;10055704;28;20475;-66
2022/10/26 14:22:36;;;;;;;28.23;8.15;;;;;;;;;;10070546;28;20058;-67
2022/10/26 14:27:37;;;;;;;31.35;7.63;;;;;;;;;;10058003;28;20409;-66
2022/10/26 14:32:32;;;;;;;20.33;6.93;;;;;;;;;;10045823;28;20061;-66
2022/10/26 14:37:43;;;;;;;26.15;7.10;;;;;;;;;;10040199;28;20046;-66
2022/10/26 14:42:44;;;;;;;21.45;8.40;;;;;;;;;;10062153;28;20060;-66
2022/10/26 14:47:36;;;;;;;25.58;8.65;;;;;;;;;;10044318;28;20484;-66
2022/10/26 14:52:34;;;;;;;18.90;8.65;;;;;;;;;;10056318;28;20088;-66
2022/10/26 14:57:36;;;;;;;21.10;10.43;;;;;;;;;;10045757;28;20061;-66
2022/10/26 15:02:29;;;;;;;27.17;10.38;;;;;;;;;;10046002;28;20034;-66
2022/10/26 15:07:23;;;;;;;22.48;9.75;;;;;;;;;;10041395;28;20453;-66
2022/10/26 15:12:35;;;;;;;27.05;12.10;;;;;;;;;;10032715;28;20054;-66
2022/10/26 15:17:35;;;;;;;31.00;11.82;;;;;;;;;;10028454;28;20469;-65
2022/10/26 15:22:29;;;;;;;31.88;11.80;;;;;;;;;;10051016;28;20058;-66
2022/10/26 15:27:24;;;;;;;25.92;12.32;;;;;;;;;;10045464;28;20396;-66
2022/10/26 15:32:25;;;;;;;24.77;13.52;;;;;;;;;;10040193;28;20057;-66
2022/10/26 15:37:19;;;;;;;23.67;12.55;;;;;;;;;;10040401;28;20372;-66
2022/10/26 15:42:14;;;;;;;23.65;11.60;;;;;;;;;;10023030;28;20050;-65
2022/10/26 15:47:17;;;;;;;22.17;11.07;;;;;;;;;;10014924;28;20062;-67
2022/10/26 15:52:10;;;;;;;28.55;11.63;;;;;;;;;;10015881;28;20164;-65
2022/10/26 15:57:05;;;;;;;24.20;11.50;;;;;;;;;;10017282;28;20362;-64
2022/10/26 16:01:59;;;;;;;25.67;11.68;;;;;;;;;;10016293;28;20065;-67
2022/10/26 16:06:57;;;;;;;30.10;12.65;;;;;;;;;;10015592;28;20044;-65
2022/10/26 16:11:51;;;;;;;32.95;14.13;;;;;;;;;;10015588;28;20054;-68
2022/10/26 16:16:45;;;;;;;29.73;11.32;;;;;;;;;;10006545;28;20528;-68
2022/10/26 16:21:40;;;;;;;32.30;12.77;;;;;;;;;;10009856;28;20062;-68
2022/10/26 16:26:34;;;;;;;26.33;12.60;;;;;;;;;;10014152;28;20054;-69
2022/10/26 16:31:26;;;;;;;29.77;13.35;;;;;;;;;;10017845;28;20117;-69
2022/10/26 16:36:20;;;;;;;23.27;11.43;;;;;;;;;;10018467;28;20574;-66
2022/10/26 16:41:17;;;;;;;27.73;13.10;;;;;;;;;;10017698;28;20578;-69
2022/10/26 16:46:12;;;;;;;35.53;12.70;;;;;;;;;;10032411;28;20053;-70
2022/10/26 16:51:18;;;;;;;23.73;11.70;;;;;;;;;;10034362;28;20058;-68
2022/10/26 16:56:14;;;;;;;28.13;12.88;;;;;;;;;;10033499;28;20551;-66
2022/10/26 17:01:09;;;;;;;29.45;11.18;;;;;;;;;;10029769;28;20045;-68
2022/10/26 17:06:05;;;;;;;23.80;12.27;;;;;;;;;;10032506;28;20096;-67
2022/10/26 17:11:04;;;;;;;29.10;10.93;;;;;;;;;;10041968;28;20107;-68
2022/10/26 17:16:06;;;;;;;20.08;10.27;;;;;;;;;;10028497;28;20057;-69
2022/10/26 17:20:59;;;;;;;32.15;12.20;;;;;;;;;;10029980;28;20085;-68
2022/10/26 17:25:54;;;;;;;36.05;14.07;;;;;;;;;;10030731;28;20486;-68
2022/10/26 17:30:48;;;;;;;31.80;14.10;;;;;;;;;;10030273;28;20050;-68
2022/10/26 17:35:43;;;;;;;38.20;14.82;;;;;;;;;;10026483;28;20062;-65
2022/10/26 17:40:37;;;;;;;37.17;12.55;;;;;;;;;;10022887;28;20136;-68
2022/10/26 17:45:30;;;;;;;25.60;13.98;;;;;;;;;;10024973;28;20558;-70
2022/10/26 17:50:23;;;;;;;31.55;13.43;;;;;;;;;;10036060;28;20500;-68
2022/10/26 17:55:18;;;;;;;39.97;14.52;;;;;;;;;;10040934;28;20049;-68
2022/10/26 18:00:11;;;;;;;28.92;13.45;;;;;;;;;;10045208;28;21267;-68
2022/10/26 18:05:06;;;;;;;24.08;14.73;;;;;;;;;;10047548;28;20456;-69
2022/10/26 18:10:00;;;;;;;28.10;12.18;;;;;;;;;;10038267;28;20054;-69
2022/10/26 18:15:13;;;;;;;23.88;13.43;;;;;;;;;;10035034;28;20111;-69
2022/10/26 18:20:07;;;;;;;27.98;13.68;;;;;;;;;;10024223;28;20496;-68
2022/10/26 18:25:03;;;;;;;25.98;14.68;;;;;;;;;;10035370;28;20054;-68
2022/10/26 18:29:58;;;;;;;32.35;19.48;;;;;;;;;;10025053;28;20050;-70
2022/10/26 18:34:53;;;;;;;24.55;14.57;;;;;;;;;;10033174;28;20549;-68
2022/10/26 18:39:47;;;;;;;24.65;14.57;;;;;;;;;;10038946;28;20133;-70
2022/10/26 18:44:42;;;;;;;30.08;14.88;;;;;;;;;;10038843;28;20050;-70
2022/10/26 18:49:40;;;;;;;20.10;14.73;;;;;;;;;;10020964;28;20630;-69
2022/10/26 18:54:33;;;;;;;32.40;15.48;;;;;;;;;;10031828;28;20551;-69
2022/10/26 18:59:26;;;;;;;25.30;15.18;;;;;;;;;;10035055;28;20133;-69
2022/10/26 19:04:21;;;;;;;26.17;15.02;;;;;;;;;;10032938;28;20053;-81
2022/10/26 19:09:14;;;;;;;24.65;15.27;;;;;;;;;;10042487;28;20045;-69
2022/10/26 19:14:09;;;;;;;22.10;14.70;;;;;;;;;;10037891;28;20058;-70
2022/10/26 19:19:04;;;;;;;22.15;12.80;;;;;;;;;;10022480;28;20050;-67
2022/10/26 19:24:00;;;;;;;31.83;14.07;;;;;;;;;;10030396;28;20062;-67
2022/10/26 19:28:56;;;;;;;21.75;13.15;;;;;;;;;;10024555;28;20069;-68
2022/10/26 19:33:49;;;;;;;43.42;15.52;;;;;;;;;;10019719;28;20046;-68
2022/10/26 19:38:42;;;;;;;29.48;14.75;;;;;;;;;;10027875;28;20057;-68
2022/10/26 19:43:37;;;;;;;24.00;14.85;;;;;;;;;;10029889;28;20050;-68
2022/10/26 19:48:31;;;;;;;34.13;14.68;;;;;;;;;;10029670;28;20049;-68
2022/10/26 19:53:25;;;;;;;30.17;14.90;;;;;;;;;;10025982;28;20531;-67
2022/10/26 19:58:18;;;;;;;29.63;15.40;;;;;;;;;;10029302;28;20061;-69
2022/10/26 20:03:12;;;;;;;31.10;16.30;;;;;;;;;;10027181;28;20092;-69
2022/10/26 20:08:08;;;;;;;31.38;18.05;;;;;;;;;;10028396;28;20598;-69
2022/10/26 20:13:02;;;;;;;28.88;18.75;;;;;;;;;;10018021;28;20141;-69
2022/10/26 20:17:55;;;;;;;31.08;18.15;;;;;;;;;;10030114;28;20084;-69
2022/10/26 20:22:49;;;;;;;34.53;19.63;;;;;;;;;;10027330;28;20412;-68
2022/10/26 20:27:45;;;;;;;40.42;20.17;;;;;;;;;;10019867;28;20072;-68
2022/10/26 20:32:39;;;;;;;36.60;19.35;;;;;;;;;;10036017;28;20129;-69
2022/10/26 20:37:36;;;;;;;44.17;20.60;;;;;;;;;;10035266;28;20052;-69
2022/10/26 20:42:31;;;;;;;41.65;21.73;;;;;;;;;;10029220;28;20042;-68
2022/10/26 20:47:27;;;;;;;27.75;19.95;;;;;;;;;;10050007;28;20060;-69
2022/10/26 20:52:29;;;;;;;42.10;20.67;;;;;;;;;;10035745;28;20061;-69
2022/10/26 20:57:28;;;;;;;35.50;20.10;;;;;;;;;;10040352;28;20053;-68
2022/10/26 21:02:26;;;;;;;34.85;20.90;;;;;;;;;;10035788;28;20433;-69
2022/10/26 21:07:19;;;;;;;27.60;17.77;;;;;;;;;;10040375;28;20054;-68
2022/10/26 21:12:13;;;;;;;36.80;19.45;;;;;;;;;;10038863;28;20132;-68
2022/10/26 21:17:07;;;;;;;29.40;17.15;;;;;;;;;;10021910;28;20425;-68
2022/10/26 21:22:00;;;;;;;22.95;17.00;;;;;;;;;;10032032;28;20090;-68
2022/10/26 21:26:54;;;;;;;34.92;16.90;;;;;;;;;;10025045;28;20050;-68
2022/10/26 21:31:49;;;;;;;30.58;16.73;;;;;;;;;;10022269;28;20058;-68
2022/10/26 21:36:44;;;;;;;30.77;18.15;;;;;;;;;;10023123;28;20573;-68
2022/10/26 21:41:39;;;;;;;28.50;16.70;;;;;;;;;;10026394;28;20054;-68
2022/10/26 21:46:34;;;;;;;25.08;15.45;;;;;;;;;;10028289;28;20046;-68
2022/10/26 21:51:28;;;;;;;27.27;16.85;;;;;;;;;;10034936;28;20069;-68
2022/10/26 21:56:23;;;;;;;26.63;14.52;;;;;;;;;;10037947;28;20136;-68
2022/10/26 22:01:18;;;;;;;41.95;16.38;;;;;;;;;;10028998;28;20104;-68
2022/10/26 22:06:14;;;;;;;35.00;16.33;;;;;;;;;;10042832;28;20046;-68
2022/10/26 22:11:12;;;;;;;30.98;15.90;;;;;;;;;;10051348;28;20053;-68
2022/10/26 22:16:33;;;;;;;27.63;16.17;;;;;;;;;;10051416;28;20062;-68
2022/10/26 22:21:27;;;;;;;35.63;17.33;;;;;;;;;;10060463;28;20073;-68
2022/10/26 22:26:22;;;;;;;31.25;17.05;;;;;;;;;;10052680;28;20292;-68
2022/10/26 22:31:18;;;;;;;39.28;17.55;;;;;;;;;;10058816;28;20053;-68
2022/10/26 22:36:13;;;;;;;29.65;18.13;;;;;;;;;;10063996;28;20057;-68
2022/10/26 22:41:07;;;;;;;47.00;19.23;;;;;;;;;;10063440;28;20057;-68
2022/10/26 22:46:03;;;;;;;39.47;19.02;;;;;;;;;;10059511;28;20057;-68
2022/10/26 22:50:57;;;;;;;31.73;19.23;;;;;;;;;;10056125;28;20171;-67
2022/10/26 22:55:51;;;;;;;30.17;19.30;;;;;;;;;;10062746;28;20049;-68
2022/10/26 23:00:44;;;;;;;35.85;20.23;;;;;;;;;;10061459;28;20452;-68
2022/10/26 23:05:45;;;;;;;28.83;19.33;;;;;;;;;;10064236;28;20104;-68
2022/10/26 23:10:38;;;;;;;31.38;19.20;;;;;;;;;;10065566;28;20037;-69
2022/10/26 23:15:31;;;;;;;30.50;18.80;;;;;;;;;;10040133;28;20385;-68
2022/10/26 23:20:25;;;;;;;29.33;19.38;;;;;;;;;;10050903;28;20488;-67
2022/10/26 23:25:19;;;;;;;34.58;20.13;;;;;;;;;;10063166;28;20045;-68
2022/10/26 23:30:14;;;;;;;34.47;20.48;;;;;;;;;;10064127;28;20061;-68
2022/10/26 23:35:11;;;;;;;30.08;19.83;;;;;;;;;;10065355;28;20092;-68
2022/10/26 23:40:07;;;;;;;43.05;20.52;;;;;;;;;;10061083;28;20060;-68
2022/10/26 23:45:00;;;;;;;34.80;18.98;;;;;;;;;;10061274;28;20053;-68
2022/10/26 23:49:54;;;;;;;35.10;19.60;;;;;;;;;;10060942;28;20538;-68
2022/10/26 23:54:47;;;;;;;35.40;22.65;;;;;;;;;;10062011;28;20059;-67
2022/10/26 23:59:45;;;;;;;40.03;22.67;;;;;;;;;;10058028;28;20073;-67
